sensor_id;sensor_type;location;lat;lon;timestamp;temperature;humidity
796;DHT22;381;48.770;9.188;2023-01-15T00:05:01;11.50;99.90
796;DHT22;381;48.770;9.188;2023-01-15T00:10:06;11.40;99.90
796;DHT22;381;48.770;9.188;2023-01-15T00:15:13;11.40;99.90
796;DHT22;381;48.770;9.188;2023-01-15T00:20:15;11.60;99.90
796;DHT22;381;48.770;9.188;2023-01-15T00:25:20;11.80;99.90
796;DHT22;381;48.770;9.188;2023-01-15T00:30:40;12.00;99.90
796;DHT22;381;48.770;9.188;2023-01-15T00:35:43;11.90;99.90
796;DHT22;381;48.770;9.188;2023-01-15T00:40:47;11.80;99.90
796;DHT22;381;48.770;9.188;2023-01-15T00:45:52;11.80;99.90
796;DHT22;381;48.770;9.188;2023-01-15T00:50:54;11.90;99.90
796;DHT22;381;48.770;9.188;2023-01-15T00:55:58;11.90;99.90
796;DHT22;381;48.770;9.188;2023-01-15T01:01:02;11.90;99.90
796;DHT22;381;48.770;9.188;2023-01-15T01:06:04;12.00;99.90
796;DHT22;381;48.770;9.188;2023-01-15T01:11:09;12.00;99.90
796;DHT22;381;48.770;9.188;2023-01-15T01:16:22;12.00;99.90
796;DHT22;381;48.770;9.188;2023-01-15T01:21:24;12.00;99.90
796;DHT22;381;48.770;9.188;2023-01-15T01:26:28;12.20;99.90
796;DHT22;381;48.770;9.188;2023-01-15T01:31:31;12.20;99.90
796;DHT22;381;48.770;9.188;2023-01-15T01:36:35;12.20;99.90
796;DHT22;381;48.770;9.188;2023-01-15T01:41:40;12.30;99.90
796;DHT22;381;48.770;9.188;2023-01-15T01:46:42;12.30;99.90
796;DHT22;381;48.770;9.188;2023-01-15T01:51:48;12.30;99.90
796;DHT22;381;48.770;9.188;2023-01-15T01:56:54;12.30;99.90
796;DHT22;381;48.770;9.188;2023-01-15T02:01:57;12.20;99.90
796;DHT22;381;48.770;9.188;2023-01-15T02:07:00;12.30;99.90
796;DHT22;381;48.770;9.188;2023-01-15T02:12:18;12.30;99.90
796;DHT22;381;48.770;9.188;2023-01-15T02:17:26;12.30;99.90
796;DHT22;381;48.770;9.188;2023-01-15T02:22:35;12.30;99.90
796;DHT22;381;48.770;9.188;2023-01-15T02:27:45;12.20;99.90
796;DHT22;381;48.770;9.188;2023-01-15T02:32:51;12.30;99.90
796;DHT22;381;48.770;9.188;2023-01-15T02:38:06;12.40;99.90
796;DHT22;381;48.770;9.188;2023-01-15T02:43:12;12.40;99.90
796;DHT22;381;48.770;9.188;2023-01-15T02:48:19;12.30;99.90
796;DHT22;381;48.770;9.188;2023-01-15T02:53:25;12.50;99.90
796;DHT22;381;48.770;9.188;2023-01-15T02:58:35;12.50;99.90
796;DHT22;381;48.770;9.188;2023-01-15T03:03:43;12.40;99.90
796;DHT22;381;48.770;9.188;2023-01-15T03:08:47;12.30;99.90
796;DHT22;381;48.770;9.188;2023-01-15T03:14:01;12.20;99.90
796;DHT22;381;48.770;9.188;2023-01-15T03:19:10;12.20;99.90
796;DHT22;381;48.770;9.188;2023-01-15T03:24:20;12.20;99.90
796;DHT22;381;48.770;9.188;2023-01-15T03:29:29;12.10;99.90
796;DHT22;381;48.770;9.188;2023-01-15T03:34:37;12.20;99.90
796;DHT22;381;48.770;9.188;2023-01-15T03:39:42;12.30;99.90
796;DHT22;381;48.770;9.188;2023-01-15T03:45:01;12.40;99.90
796;DHT22;381;48.770;9.188;2023-01-15T03:50:10;12.60;99.90
796;DHT22;381;48.770;9.188;2023-01-15T03:55:21;12.60;99.90
796;DHT22;381;48.770;9.188;2023-01-15T04:00:37;12.60;99.90
796;DHT22;381;48.770;9.188;2023-01-15T04:05:41;12.60;99.90
796;DHT22;381;48.770;9.188;2023-01-15T04:10:51;12.70;99.90
796;DHT22;381;48.770;9.188;2023-01-15T04:15:57;12.70;99.90
796;DHT22;381;48.770;9.188;2023-01-15T04:21:00;12.80;99.90
796;DHT22;381;48.770;9.188;2023-01-15T04:26:06;12.90;99.90
796;DHT22;381;48.770;9.188;2023-01-15T04:31:15;13.20;99.90
796;DHT22;381;48.770;9.188;2023-01-15T04:36:18;13.20;99.90
796;DHT22;381;48.770;9.188;2023-01-15T04:41:20;13.10;99.90
796;DHT22;381;48.770;9.188;2023-01-15T04:46:42;13.10;99.90
796;DHT22;381;48.770;9.188;2023-01-15T04:51:45;13.00;99.90
796;DHT22;381;48.770;9.188;2023-01-15T04:56:49;13.20;99.90
796;DHT22;381;48.770;9.188;2023-01-15T05:01:53;13.30;99.90
796;DHT22;381;48.770;9.188;2023-01-15T05:06:55;13.30;99.90
796;DHT22;381;48.770;9.188;2023-01-15T05:11:58;13.10;99.90
796;DHT22;381;48.770;9.188;2023-01-15T05:17:02;13.10;99.90
796;DHT22;381;48.770;9.188;2023-01-15T05:22:04;13.00;99.90
796;DHT22;381;48.770;9.188;2023-01-15T05:27:06;13.00;99.90
796;DHT22;381;48.770;9.188;2023-01-15T05:32:11;13.00;99.90
796;DHT22;381;48.770;9.188;2023-01-15T05:37:13;12.90;99.90
796;DHT22;381;48.770;9.188;2023-01-15T05:42:15;12.60;99.90
796;DHT22;381;48.770;9.188;2023-01-15T05:47:19;12.20;99.90
796;DHT22;381;48.770;9.188;2023-01-15T05:52:21;11.90;99.90
796;DHT22;381;48.770;9.188;2023-01-15T05:57:24;11.60;99.90
796;DHT22;381;48.770;9.188;2023-01-15T06:02:27;11.50;99.90
796;DHT22;381;48.770;9.188;2023-01-15T06:07:30;11.30;99.90
796;DHT22;381;48.770;9.188;2023-01-15T06:12:32;11.10;99.90
796;DHT22;381;48.770;9.188;2023-01-15T06:17:35;10.80;99.90
796;DHT22;381;48.770;9.188;2023-01-15T06:22:39;10.60;99.90
796;DHT22;381;48.770;9.188;2023-01-15T06:27:41;10.50;99.90
796;DHT22;381;48.770;9.188;2023-01-15T06:32:45;10.40;99.90
796;DHT22;381;48.770;9.188;2023-01-15T06:37:48;10.50;99.90
796;DHT22;381;48.770;9.188;2023-01-15T06:42:50;10.60;99.90
796;DHT22;381;48.770;9.188;2023-01-15T06:48:10;10.60;99.90
796;DHT22;381;48.770;9.188;2023-01-15T06:53:12;10.40;99.90
796;DHT22;381;48.770;9.188;2023-01-15T06:58:15;10.50;99.90
796;DHT22;381;48.770;9.188;2023-01-15T07:03:18;10.40;99.90
796;DHT22;381;48.770;9.188;2023-01-15T07:08:20;10.30;99.90
796;DHT22;381;48.770;9.188;2023-01-15T07:13:22;10.10;99.90
796;DHT22;381;48.770;9.188;2023-01-15T07:18:26;9.90;99.90
796;DHT22;381;48.770;9.188;2023-01-15T07:23:28;9.80;99.90
796;DHT22;381;48.770;9.188;2023-01-15T07:28:30;9.70;99.90
796;DHT22;381;48.770;9.188;2023-01-15T07:33:34;9.50;99.90
796;DHT22;381;48.770;9.188;2023-01-15T07:38:36;9.40;99.90
796;DHT22;381;48.770;9.188;2023-01-15T07:43:38;9.40;99.90
796;DHT22;381;48.770;9.188;2023-01-15T07:48:59;9.30;99.90
796;DHT22;381;48.770;9.188;2023-01-15T07:54:18;9.10;99.90
796;DHT22;381;48.770;9.188;2023-01-15T07:59:20;9.10;99.90
796;DHT22;381;48.770;9.188;2023-01-15T08:04:24;9.00;99.90
796;DHT22;381;48.770;9.188;2023-01-15T08:09:26;9.00;99.90
796;DHT22;381;48.770;9.188;2023-01-15T08:14:28;9.00;99.90
796;DHT22;381;48.770;9.188;2023-01-15T08:19:49;8.90;99.90
796;DHT22;381;48.770;9.188;2023-01-15T08:24:51;9.00;99.90
796;DHT22;381;48.770;9.188;2023-01-15T08:29:53;9.10;99.90
796;DHT22;381;48.770;9.188;2023-01-15T08:34:57;9.10;99.90
796;DHT22;381;48.770;9.188;2023-01-15T08:39:59;9.10;99.90
796;DHT22;381;48.770;9.188;2023-01-15T08:45:02;9.10;99.90
796;DHT22;381;48.770;9.188;2023-01-15T08:50:06;9.10;99.90
796;DHT22;381;48.770;9.188;2023-01-15T08:55:09;9.10;99.90
796;DHT22;381;48.770;9.188;2023-01-15T09:00:12;9.00;99.90
796;DHT22;381;48.770;9.188;2023-01-15T09:05:16;9.10;99.90
796;DHT22;381;48.770;9.188;2023-01-15T09:10:19;9.20;99.90
796;DHT22;381;48.770;9.188;2023-01-15T09:15:24;9.10;99.90
796;DHT22;381;48.770;9.188;2023-01-15T09:20:28;9.00;99.90
796;DHT22;381;48.770;9.188;2023-01-15T09:25:30;9.00;99.90
796;DHT22;381;48.770;9.188;2023-01-15T09:30:34;9.00;99.90
796;DHT22;381;48.770;9.188;2023-01-15T09:35:37;9.10;99.90
796;DHT22;381;48.770;9.188;2023-01-15T09:40:46;9.20;99.90
796;DHT22;381;48.770;9.188;2023-01-15T09:45:54;9.30;99.90
796;DHT22;381;48.770;9.188;2023-01-15T09:51:06;9.20;99.90
796;DHT22;381;48.770;9.188;2023-01-15T09:56:19;9.30;99.90
796;DHT22;381;48.770;9.188;2023-01-15T10:01:25;9.30;99.90
796;DHT22;381;48.770;9.188;2023-01-15T10:06:40;9.30;99.90
796;DHT22;381;48.770;9.188;2023-01-15T10:11:45;9.20;99.90
796;DHT22;381;48.770;9.188;2023-01-15T10:17:20;9.20;99.90
796;DHT22;381;48.770;9.188;2023-01-15T10:22:33;9.20;99.90
796;DHT22;381;48.770;9.188;2023-01-15T10:27:40;9.20;99.90
796;DHT22;381;48.770;9.188;2023-01-15T10:32:53;9.20;99.90
796;DHT22;381;48.770;9.188;2023-01-15T10:38:06;9.20;99.90
796;DHT22;381;48.770;9.188;2023-01-15T10:43:18;9.30;99.90
796;DHT22;381;48.770;9.188;2023-01-15T10:48:28;9.40;99.90
796;DHT22;381;48.770;9.188;2023-01-15T10:53:36;9.50;99.90
796;DHT22;381;48.770;9.188;2023-01-15T10:58:46;9.50;99.90
796;DHT22;381;48.770;9.188;2023-01-15T11:03:51;9.50;99.90
796;DHT22;381;48.770;9.188;2023-01-15T11:08:57;9.40;99.90
796;DHT22;381;48.770;9.188;2023-01-15T11:13:59;9.20;99.90
796;DHT22;381;48.770;9.188;2023-01-15T11:19:26;8.90;99.90
796;DHT22;381;48.770;9.188;2023-01-15T11:24:45;8.70;99.90
796;DHT22;381;48.770;9.188;2023-01-15T11:29:51;8.50;99.90
796;DHT22;381;48.770;9.188;2023-01-15T11:34:57;8.30;99.90
796;DHT22;381;48.770;9.188;2023-01-15T11:40:01;8.30;99.90
796;DHT22;381;48.770;9.188;2023-01-15T11:45:18;8.30;99.90
796;DHT22;381;48.770;9.188;2023-01-15T11:50:48;8.30;99.90
796;DHT22;381;48.770;9.188;2023-01-15T11:55:58;8.40;99.90
796;DHT22;381;48.770;9.188;2023-01-15T12:01:01;8.30;99.90
796;DHT22;381;48.770;9.188;2023-01-15T12:06:06;8.30;99.90
796;DHT22;381;48.770;9.188;2023-01-15T12:11:23;8.30;99.90
796;DHT22;381;48.770;9.188;2023-01-15T12:16:36;8.30;99.90
796;DHT22;381;48.770;9.188;2023-01-15T12:22:04;8.30;99.90
796;DHT22;381;48.770;9.188;2023-01-15T12:27:27;8.30;99.90
796;DHT22;381;48.770;9.188;2023-01-15T12:32:34;8.40;99.90
796;DHT22;381;48.770;9.188;2023-01-15T12:37:41;8.50;99.90
796;DHT22;381;48.770;9.188;2023-01-15T12:42:48;8.70;99.90
796;DHT22;381;48.770;9.188;2023-01-15T12:48:15;8.60;99.90
796;DHT22;381;48.770;9.188;2023-01-15T12:53:33;8.50;99.90
796;DHT22;381;48.770;9.188;2023-01-15T12:58:45;8.60;99.90
796;DHT22;381;48.770;9.188;2023-01-15T13:03:52;8.70;99.90
796;DHT22;381;48.770;9.188;2023-01-15T13:09:01;8.70;99.90
796;DHT22;381;48.770;9.188;2023-01-15T13:14:13;8.60;99.90
796;DHT22;381;48.770;9.188;2023-01-15T13:19:28;8.40;99.90
796;DHT22;381;48.770;9.188;2023-01-15T13:24:59;8.40;99.90
796;DHT22;381;48.770;9.188;2023-01-15T13:30:37;8.40;99.90
796;DHT22;381;48.770;9.188;2023-01-15T13:35:45;8.50;99.90
796;DHT22;381;48.770;9.188;2023-01-15T13:40:52;8.40;99.90
796;DHT22;381;48.770;9.188;2023-01-15T13:45:57;8.50;99.90
796;DHT22;381;48.770;9.188;2023-01-15T13:51:01;8.40;99.90
796;DHT22;381;48.770;9.188;2023-01-15T13:56:06;8.40;99.90
796;DHT22;381;48.770;9.188;2023-01-15T14:01:23;8.40;99.90
796;DHT22;381;48.770;9.188;2023-01-15T14:06:40;8.50;99.90
796;DHT22;381;48.770;9.188;2023-01-15T14:11:56;8.40;99.90
796;DHT22;381;48.770;9.188;2023-01-15T14:17:10;8.30;99.90
796;DHT22;381;48.770;9.188;2023-01-15T14:22:39;8.30;99.90
796;DHT22;381;48.770;9.188;2023-01-15T14:27:55;8.30;99.90
796;DHT22;381;48.770;9.188;2023-01-15T14:33:10;8.30;99.90
796;DHT22;381;48.770;9.188;2023-01-15T14:38:20;8.30;99.90
796;DHT22;381;48.770;9.188;2023-01-15T14:43:26;8.50;99.90
796;DHT22;381;48.770;9.188;2023-01-15T14:48:38;8.60;99.90
796;DHT22;381;48.770;9.188;2023-01-15T14:53:42;8.60;99.90
796;DHT22;381;48.770;9.188;2023-01-15T14:58:55;8.50;99.90
796;DHT22;381;48.770;9.188;2023-01-15T15:04:07;8.50;99.80
796;DHT22;381;48.770;9.188;2023-01-15T15:09:13;8.60;99.90
796;DHT22;381;48.770;9.188;2023-01-15T15:14:19;8.70;99.90
796;DHT22;381;48.770;9.188;2023-01-15T15:19:27;8.60;99.30
796;DHT22;381;48.770;9.188;2023-01-15T15:24:31;8.60;99.40
796;DHT22;381;48.770;9.188;2023-01-15T15:29:34;8.50;99.90
796;DHT22;381;48.770;9.188;2023-01-15T15:34:39;8.40;99.00
796;DHT22;381;48.770;9.188;2023-01-15T15:39:48;8.20;99.90
796;DHT22;381;48.770;9.188;2023-01-15T15:44:54;8.20;99.70
796;DHT22;381;48.770;9.188;2023-01-15T15:50:21;8.30;99.60
796;DHT22;381;48.770;9.188;2023-01-15T15:55:25;8.20;99.80
796;DHT22;381;48.770;9.188;2023-01-15T16:00:31;8.20;99.80
796;DHT22;381;48.770;9.188;2023-01-15T16:05:35;8.00;99.50
796;DHT22;381;48.770;9.188;2023-01-15T16:10:38;8.00;99.20
796;DHT22;381;48.770;9.188;2023-01-15T16:15:40;7.90;99.20
796;DHT22;381;48.770;9.188;2023-01-15T16:20:45;7.80;99.60
796;DHT22;381;48.770;9.188;2023-01-15T16:25:57;7.70;99.70
796;DHT22;381;48.770;9.188;2023-01-15T16:31:01;7.80;98.90
796;DHT22;381;48.770;9.188;2023-01-15T16:36:06;7.70;99.90
796;DHT22;381;48.770;9.188;2023-01-15T16:41:16;7.70;98.80
796;DHT22;381;48.770;9.188;2023-01-15T16:46:19;7.60;99.60
796;DHT22;381;48.770;9.188;2023-01-15T16:51:29;7.50;99.40
796;DHT22;381;48.770;9.188;2023-01-15T16:56:50;7.40;99.20
796;DHT22;381;48.770;9.188;2023-01-15T17:01:53;7.40;99.20
796;DHT22;381;48.770;9.188;2023-01-15T17:07:00;7.30;99.80
796;DHT22;381;48.770;9.188;2023-01-15T17:12:06;7.50;99.40
796;DHT22;381;48.770;9.188;2023-01-15T17:17:20;7.50;99.30
796;DHT22;381;48.770;9.188;2023-01-15T17:22:28;7.50;99.30
796;DHT22;381;48.770;9.188;2023-01-15T17:27:31;7.40;99.50
796;DHT22;381;48.770;9.188;2023-01-15T17:32:34;7.30;99.60
796;DHT22;381;48.770;9.188;2023-01-15T17:37:38;7.30;99.40
796;DHT22;381;48.770;9.188;2023-01-15T17:42:40;7.20;99.70
796;DHT22;381;48.770;9.188;2023-01-15T17:47:42;7.10;99.60
796;DHT22;381;48.770;9.188;2023-01-15T17:52:46;7.10;99.60
796;DHT22;381;48.770;9.188;2023-01-15T17:57:48;7.00;99.70
796;DHT22;381;48.770;9.188;2023-01-15T18:03:12;7.00;99.40
796;DHT22;381;48.770;9.188;2023-01-15T18:08:36;7.00;99.90
796;DHT22;381;48.770;9.188;2023-01-15T18:13:39;7.00;99.80
796;DHT22;381;48.770;9.188;2023-01-15T18:18:41;6.90;99.70
796;DHT22;381;48.770;9.188;2023-01-15T18:23:45;7.10;99.90
796;DHT22;381;48.770;9.188;2023-01-15T18:28:47;7.30;99.10
796;DHT22;381;48.770;9.188;2023-01-15T18:33:50;7.30;99.20
796;DHT22;381;48.770;9.188;2023-01-15T18:38:54;7.20;99.20
796;DHT22;381;48.770;9.188;2023-01-15T18:44:04;7.20;98.70
796;DHT22;381;48.770;9.188;2023-01-15T18:49:23;7.10;99.00
796;DHT22;381;48.770;9.188;2023-01-15T18:54:27;7.00;99.30
796;DHT22;381;48.770;9.188;2023-01-15T18:59:29;7.00;99.10
796;DHT22;381;48.770;9.188;2023-01-15T19:04:31;7.10;99.50
796;DHT22;381;48.770;9.188;2023-01-15T19:09:35;7.20;99.00
796;DHT22;381;48.770;9.188;2023-01-15T19:14:37;7.10;98.50
796;DHT22;381;48.770;9.188;2023-01-15T19:19:56;7.00;98.50
796;DHT22;381;48.770;9.188;2023-01-15T19:25:00;7.00;99.00
796;DHT22;381;48.770;9.188;2023-01-15T19:30:02;7.00;98.30
796;DHT22;381;48.770;9.188;2023-01-15T19:35:07;7.10;98.50
796;DHT22;381;48.770;9.188;2023-01-15T19:40:12;7.10;98.10
796;DHT22;381;48.770;9.188;2023-01-15T19:45:16;7.00;98.10
796;DHT22;381;48.770;9.188;2023-01-15T19:50:37;6.90;98.10
796;DHT22;381;48.770;9.188;2023-01-15T19:55:43;6.80;98.10
796;DHT22;381;48.770;9.188;2023-01-15T20:00:46;6.80;98.30
796;DHT22;381;48.770;9.188;2023-01-15T20:05:49;6.70;98.50
796;DHT22;381;48.770;9.188;2023-01-15T20:10:52;6.70;98.50
796;DHT22;381;48.770;9.188;2023-01-15T20:15:54;6.90;97.90
796;DHT22;381;48.770;9.188;2023-01-15T20:20:56;7.00;97.60
796;DHT22;381;48.770;9.188;2023-01-15T20:26:05;7.00;97.90
796;DHT22;381;48.770;9.188;2023-01-15T20:31:13;7.00;97.50
796;DHT22;381;48.770;9.188;2023-01-15T20:36:15;6.90;97.60
796;DHT22;381;48.770;9.188;2023-01-15T20:41:19;6.80;98.10
796;DHT22;381;48.770;9.188;2023-01-15T20:46:38;6.80;98.40
796;DHT22;381;48.770;9.188;2023-01-15T20:51:40;6.70;98.60
796;DHT22;381;48.770;9.188;2023-01-15T20:56:46;6.80;98.20
796;DHT22;381;48.770;9.188;2023-01-15T21:01:48;6.70;98.30
796;DHT22;381;48.770;9.188;2023-01-15T21:06:50;7.00;97.70
796;DHT22;381;48.770;9.188;2023-01-15T21:11:53;7.10;97.60
796;DHT22;381;48.770;9.188;2023-01-15T21:16:55;7.00;97.40
796;DHT22;381;48.770;9.188;2023-01-15T21:21:57;6.90;97.40
796;DHT22;381;48.770;9.188;2023-01-15T21:27:01;6.70;98.10
796;DHT22;381;48.770;9.188;2023-01-15T21:32:03;6.70;97.60
796;DHT22;381;48.770;9.188;2023-01-15T21:37:05;6.60;98.00
796;DHT22;381;48.770;9.188;2023-01-15T21:42:13;6.70;97.80
796;DHT22;381;48.770;9.188;2023-01-15T21:47:34;6.70;97.20
796;DHT22;381;48.770;9.188;2023-01-15T21:52:37;6.80;97.50
796;DHT22;381;48.770;9.188;2023-01-15T21:57:40;6.70;97.20
796;DHT22;381;48.770;9.188;2023-01-15T22:02:42;6.60;96.90
796;DHT22;381;48.770;9.188;2023-01-15T22:07:44;6.50;97.50
796;DHT22;381;48.770;9.188;2023-01-15T22:12:48;6.40;97.30
796;DHT22;381;48.770;9.188;2023-01-15T22:17:51;6.40;97.40
796;DHT22;381;48.770;9.188;2023-01-15T22:22:55;6.30;97.70
796;DHT22;381;48.770;9.188;2023-01-15T22:27:58;6.30;98.10
796;DHT22;381;48.770;9.188;2023-01-15T22:33:00;6.40;98.00
796;DHT22;381;48.770;9.188;2023-01-15T22:38:02;6.40;97.70
796;DHT22;381;48.770;9.188;2023-01-15T22:43:06;6.40;97.40
796;DHT22;381;48.770;9.188;2023-01-15T22:48:08;6.40;98.40
796;DHT22;381;48.770;9.188;2023-01-15T22:53:10;6.40;98.40
796;DHT22;381;48.770;9.188;2023-01-15T22:58:14;6.40;97.40
796;DHT22;381;48.770;9.188;2023-01-15T23:03:16;6.30;97.40
796;DHT22;381;48.770;9.188;2023-01-15T23:08:18;6.50;98.20
796;DHT22;381;48.770;9.188;2023-01-15T23:13:22;6.70;98.10
796;DHT22;381;48.770;9.188;2023-01-15T23:18:24;6.80;97.50
796;DHT22;381;48.770;9.188;2023-01-15T23:23:30;6.70;96.90
796;DHT22;381;48.770;9.188;2023-01-15T23:28:34;6.60;97.30
796;DHT22;381;48.770;9.188;2023-01-15T23:33:36;6.50;97.10
796;DHT22;381;48.770;9.188;2023-01-15T23:38:39;6.50;97.50
796;DHT22;381;48.770;9.188;2023-01-15T23:43:43;6.50;97.00
796;DHT22;381;48.770;9.188;2023-01-15T23:49:05;6.40;96.80
796;DHT22;381;48.770;9.188;2023-01-15T23:54:07;6.30;97.50
796;DHT22;381;48.770;9.188;2023-01-15T23:59:11;6.50;96.40
